sensor_id;sensor_type;location;lat;lon;timestamp;P1;durP1;ratioP1;P2;durP2;ratioP2
73170;SDS011;61381;50.118;19.962;2023-05-29T00:04:32;4.10;;;1.65;;
73170;SDS011;61381;50.118;19.962;2023-05-29T00:09:33;2.75;;;1.55;;
73170;SDS011;61381;50.118;19.962;2023-05-29T00:14:34;2.90;;;1.60;;
73170;SDS011;61381;50.118;19.962;2023-05-29T00:19:36;3.10;;;1.77;;
73170;SDS011;61381;50.118;19.962;2023-05-29T00:24:37;3.63;;;1.60;;
73170;SDS011;61381;50.118;19.962;2023-05-29T00:29:38;2.30;;;1.40;;
73170;SDS011;61381;50.118;19.962;2023-05-29T00:34:41;2.40;;;1.48;;
73170;SDS011;61381;50.118;19.962;2023-05-29T00:39:42;3.95;;;1.77;;
73170;SDS011;61381;50.118;19.962;2023-05-29T00:44:44;3.67;;;1.48;;
73170;SDS011;61381;50.118;19.962;2023-05-29T00:49:46;4.07;;;1.65;;
73170;SDS011;61381;50.118;19.962;2023-05-29T00:54:48;4.65;;;1.75;;
73170;SDS011;61381;50.118;19.962;2023-05-29T00:59:49;3.13;;;1.35;;
73170;SDS011;61381;50.118;19.962;2023-05-29T01:04:52;3.53;;;1.67;;
73170;SDS011;61381;50.118;19.962;2023-05-29T01:09:53;4.50;;;2.00;;
73170;SDS011;61381;50.118;19.962;2023-05-29T01:15:01;2.55;;;1.55;;
73170;SDS011;61381;50.118;19.962;2023-05-29T01:20:20;3.30;;;1.48;;
73170;SDS011;61381;50.118;19.962;2023-05-29T01:25:29;3.95;;;1.70;;
73170;SDS011;61381;50.118;19.962;2023-05-29T01:30:43;2.67;;;1.50;;
73170;SDS011;61381;50.118;19.962;2023-05-29T01:35:44;3.20;;;1.65;;
73170;SDS011;61381;50.118;19.962;2023-05-29T01:40:45;3.00;;;1.88;;
73170;SDS011;61381;50.118;19.962;2023-05-29T01:45:49;4.25;;;1.50;;
73170;SDS011;61381;50.118;19.962;2023-05-29T01:50:50;4.13;;;2.03;;
73170;SDS011;61381;50.118;19.962;2023-05-29T01:55:52;7.13;;;3.00;;
73170;SDS011;61381;50.118;19.962;2023-05-29T02:00:55;4.85;;;1.83;;
73170;SDS011;61381;50.118;19.962;2023-05-29T02:05:56;4.82;;;1.70;;
73170;SDS011;61381;50.118;19.962;2023-05-29T02:10:58;4.75;;;1.88;;
73170;SDS011;61381;50.118;19.962;2023-05-29T02:16:00;3.10;;;1.63;;
73170;SDS011;61381;50.118;19.962;2023-05-29T02:21:01;4.78;;;2.15;;
73170;SDS011;61381;50.118;19.962;2023-05-29T02:26:02;2.95;;;1.70;;
73170;SDS011;61381;50.118;19.962;2023-05-29T02:31:04;4.55;;;1.98;;
73170;SDS011;61381;50.118;19.962;2023-05-29T02:36:06;4.28;;;2.10;;
73170;SDS011;61381;50.118;19.962;2023-05-29T02:41:07;4.18;;;2.13;;
73170;SDS011;61381;50.118;19.962;2023-05-29T02:46:09;3.88;;;1.90;;
73170;SDS011;61381;50.118;19.962;2023-05-29T02:51:10;3.08;;;2.17;;
73170;SDS011;61381;50.118;19.962;2023-05-29T02:56:11;3.53;;;1.70;;
73170;SDS011;61381;50.118;19.962;2023-05-29T03:01:13;4.20;;;1.85;;
73170;SDS011;61381;50.118;19.962;2023-05-29T03:06:14;6.05;;;1.95;;
73170;SDS011;61381;50.118;19.962;2023-05-29T03:11:15;7.15;;;1.83;;
73170;SDS011;61381;50.118;19.962;2023-05-29T03:16:18;4.30;;;2.00;;
73170;SDS011;61381;50.118;19.962;2023-05-29T03:21:18;2.85;;;1.70;;
73170;SDS011;61381;50.118;19.962;2023-05-29T03:26:19;2.40;;;1.58;;
73170;SDS011;61381;50.118;19.962;2023-05-29T03:31:22;3.22;;;1.80;;
73170;SDS011;61381;50.118;19.962;2023-05-29T03:36:23;4.05;;;2.05;;
73170;SDS011;61381;50.118;19.962;2023-05-29T03:41:24;4.78;;;2.20;;
73170;SDS011;61381;50.118;19.962;2023-05-29T03:46:26;3.20;;;1.60;;
73170;SDS011;61381;50.118;19.962;2023-05-29T03:51:27;4.03;;;1.75;;
73170;SDS011;61381;50.118;19.962;2023-05-29T03:56:29;3.08;;;1.75;;
73170;SDS011;61381;50.118;19.962;2023-05-29T04:01:31;3.28;;;1.70;;
73170;SDS011;61381;50.118;19.962;2023-05-29T04:06:32;5.22;;;2.25;;
73170;SDS011;61381;50.118;19.962;2023-05-29T04:11:33;5.55;;;2.08;;
73170;SDS011;61381;50.118;19.962;2023-05-29T04:16:35;4.05;;;1.85;;
73170;SDS011;61381;50.118;19.962;2023-05-29T04:21:36;7.13;;;2.15;;
73170;SDS011;61381;50.118;19.962;2023-05-29T04:26:37;4.43;;;2.08;;
73170;SDS011;61381;50.118;19.962;2023-05-29T04:31:40;4.05;;;1.70;;
73170;SDS011;61381;50.118;19.962;2023-05-29T04:36:41;3.72;;;1.70;;
73170;SDS011;61381;50.118;19.962;2023-05-29T04:41:42;5.28;;;2.17;;
73170;SDS011;61381;50.118;19.962;2023-05-29T04:46:44;4.50;;;1.80;;
73170;SDS011;61381;50.118;19.962;2023-05-29T04:51:45;4.90;;;1.70;;
73170;SDS011;61381;50.118;19.962;2023-05-29T04:56:46;4.18;;;1.90;;
73170;SDS011;61381;50.118;19.962;2023-05-29T05:01:49;3.92;;;1.73;;
73170;SDS011;61381;50.118;19.962;2023-05-29T05:06:50;3.90;;;1.80;;
73170;SDS011;61381;50.118;19.962;2023-05-29T05:11:51;3.42;;;1.63;;
73170;SDS011;61381;50.118;19.962;2023-05-29T05:16:53;2.90;;;1.85;;
73170;SDS011;61381;50.118;19.962;2023-05-29T05:21:54;6.95;;;2.13;;
73170;SDS011;61381;50.118;19.962;2023-05-29T05:26:55;5.22;;;2.00;;
73170;SDS011;61381;50.118;19.962;2023-05-29T05:31:58;4.40;;;2.20;;
73170;SDS011;61381;50.118;19.962;2023-05-29T05:36:59;5.25;;;2.20;;
73170;SDS011;61381;50.118;19.962;2023-05-29T05:42:00;5.75;;;2.70;;
73170;SDS011;61381;50.118;19.962;2023-05-29T05:47:02;4.72;;;2.33;;
73170;SDS011;61381;50.118;19.962;2023-05-29T05:52:03;5.70;;;2.38;;
73170;SDS011;61381;50.118;19.962;2023-05-29T05:57:05;4.32;;;1.95;;
73170;SDS011;61381;50.118;19.962;2023-05-29T06:02:07;4.20;;;2.40;;
73170;SDS011;61381;50.118;19.962;2023-05-29T06:07:08;4.40;;;1.95;;
73170;SDS011;61381;50.118;19.962;2023-05-29T06:12:09;5.90;;;2.25;;
73170;SDS011;61381;50.118;19.962;2023-05-29T06:17:11;4.78;;;1.88;;
73170;SDS011;61381;50.118;19.962;2023-05-29T06:22:13;3.88;;;1.80;;
73170;SDS011;61381;50.118;19.962;2023-05-29T06:27:15;2.97;;;1.85;;
73170;SDS011;61381;50.118;19.962;2023-05-29T06:32:17;5.57;;;2.20;;
73170;SDS011;61381;50.118;19.962;2023-05-29T06:37:18;6.20;;;2.67;;
73170;SDS011;61381;50.118;19.962;2023-05-29T06:42:19;5.93;;;2.10;;
73170;SDS011;61381;50.118;19.962;2023-05-29T06:47:22;6.93;;;2.50;;
73170;SDS011;61381;50.118;19.962;2023-05-29T06:52:22;3.67;;;2.20;;
73170;SDS011;61381;50.118;19.962;2023-05-29T06:57:23;4.57;;;2.42;;
73170;SDS011;61381;50.118;19.962;2023-05-29T07:02:26;3.47;;;2.05;;
73170;SDS011;61381;50.118;19.962;2023-05-29T07:07:27;3.58;;;2.10;;
73170;SDS011;61381;50.118;19.962;2023-05-29T07:12:28;5.88;;;2.45;;
73170;SDS011;61381;50.118;19.962;2023-05-29T07:17:30;5.30;;;2.33;;
73170;SDS011;61381;50.118;19.962;2023-05-29T07:22:31;3.83;;;2.35;;
73170;SDS011;61381;50.118;19.962;2023-05-29T07:27:32;4.30;;;1.98;;
73170;SDS011;61381;50.118;19.962;2023-05-29T07:32:34;5.93;;;2.30;;
73170;SDS011;61381;50.118;19.962;2023-05-29T07:37:35;6.35;;;2.45;;
73170;SDS011;61381;50.118;19.962;2023-05-29T07:42:36;6.95;;;2.53;;
73170;SDS011;61381;50.118;19.962;2023-05-29T07:47:39;3.13;;;1.77;;
73170;SDS011;61381;50.118;19.962;2023-05-29T07:52:40;4.35;;;2.15;;
73170;SDS011;61381;50.118;19.962;2023-05-29T07:57:42;5.00;;;2.38;;
73170;SDS011;61381;50.118;19.962;2023-05-29T08:02:44;5.38;;;2.20;;
73170;SDS011;61381;50.118;19.962;2023-05-29T08:07:45;5.63;;;2.20;;
73170;SDS011;61381;50.118;19.962;2023-05-29T08:12:46;5.93;;;2.33;;
73170;SDS011;61381;50.118;19.962;2023-05-29T08:17:49;6.03;;;2.67;;
73170;SDS011;61381;50.118;19.962;2023-05-29T08:22:50;3.78;;;2.10;;
73170;SDS011;61381;50.118;19.962;2023-05-29T08:27:51;3.25;;;1.75;;
73170;SDS011;61381;50.118;19.962;2023-05-29T08:32:53;3.45;;;2.17;;
73170;SDS011;61381;50.118;19.962;2023-05-29T08:37:54;4.55;;;2.10;;
73170;SDS011;61381;50.118;19.962;2023-05-29T08:42:56;4.75;;;2.40;;
73170;SDS011;61381;50.118;19.962;2023-05-29T08:48:00;4.10;;;1.70;;
73170;SDS011;61381;50.118;19.962;2023-05-29T08:53:01;4.32;;;1.90;;
73170;SDS011;61381;50.118;19.962;2023-05-29T08:58:03;3.92;;;1.80;;
73170;SDS011;61381;50.118;19.962;2023-05-29T09:03:07;6.32;;;1.80;;
73170;SDS011;61381;50.118;19.962;2023-05-29T09:08:08;3.53;;;1.90;;
73170;SDS011;61381;50.118;19.962;2023-05-29T09:13:10;9.05;;;1.98;;
73170;SDS011;61381;50.118;19.962;2023-05-29T09:18:12;3.53;;;2.08;;
73170;SDS011;61381;50.118;19.962;2023-05-29T09:23:13;5.15;;;2.15;;
73170;SDS011;61381;50.118;19.962;2023-05-29T09:28:14;3.72;;;1.83;;
73170;SDS011;61381;50.118;19.962;2023-05-29T09:33:19;5.57;;;2.13;;
73170;SDS011;61381;50.118;19.962;2023-05-29T09:38:20;4.63;;;1.73;;
73170;SDS011;61381;50.118;19.962;2023-05-29T09:43:21;3.55;;;1.75;;
73170;SDS011;61381;50.118;19.962;2023-05-29T09:48:24;5.68;;;1.98;;
73170;SDS011;61381;50.118;19.962;2023-05-29T09:53:27;4.80;;;2.00;;
73170;SDS011;61381;50.118;19.962;2023-05-29T09:58:28;4.00;;;2.50;;
73170;SDS011;61381;50.118;19.962;2023-05-29T10:03:31;4.00;;;1.92;;
73170;SDS011;61381;50.118;19.962;2023-05-29T10:08:32;6.65;;;2.10;;
73170;SDS011;61381;50.118;19.962;2023-05-29T10:13:36;4.18;;;2.20;;
73170;SDS011;61381;50.118;19.962;2023-05-29T10:18:42;4.25;;;2.00;;
73170;SDS011;61381;50.118;19.962;2023-05-29T10:23:45;5.50;;;2.20;;
73170;SDS011;61381;50.118;19.962;2023-05-29T10:28:49;4.15;;;2.00;;
73170;SDS011;61381;50.118;19.962;2023-05-29T10:34:02;3.67;;;1.58;;
73170;SDS011;61381;50.118;19.962;2023-05-29T10:39:15;5.53;;;2.20;;
73170;SDS011;61381;50.118;19.962;2023-05-29T10:49:51;7.00;;;2.05;;
73170;SDS011;61381;50.118;19.962;2023-05-29T10:54:53;8.40;;;1.90;;
73170;SDS011;61381;50.118;19.962;2023-05-29T10:59:58;4.53;;;2.63;;
73170;SDS011;61381;50.118;19.962;2023-05-29T11:05:20;5.10;;;2.00;;
73170;SDS011;61381;50.118;19.962;2023-05-29T11:10:41;5.07;;;2.72;;
73170;SDS011;61381;50.118;19.962;2023-05-29T11:15:43;3.40;;;2.20;;
73170;SDS011;61381;50.118;19.962;2023-05-29T11:20:47;5.72;;;2.20;;
73170;SDS011;61381;50.118;19.962;2023-05-29T11:25:52;3.63;;;2.03;;
73170;SDS011;61381;50.118;19.962;2023-05-29T11:30:53;3.78;;;1.80;;
73170;SDS011;61381;50.118;19.962;2023-05-29T11:35:58;3.75;;;2.28;;
73170;SDS011;61381;50.118;19.962;2023-05-29T11:41:01;3.45;;;2.15;;
73170;SDS011;61381;50.118;19.962;2023-05-29T11:46:04;5.85;;;2.20;;
73170;SDS011;61381;50.118;19.962;2023-05-29T11:51:17;4.05;;;2.13;;
73170;SDS011;61381;50.118;19.962;2023-05-29T11:56:18;6.03;;;2.25;;
73170;SDS011;61381;50.118;19.962;2023-05-29T12:01:19;4.22;;;2.25;;
73170;SDS011;61381;50.118;19.962;2023-05-29T12:06:34;5.03;;;2.30;;
73170;SDS011;61381;50.118;19.962;2023-05-29T12:11:35;5.35;;;3.15;;
73170;SDS011;61381;50.118;19.962;2023-05-29T12:16:36;6.88;;;2.40;;
73170;SDS011;61381;50.118;19.962;2023-05-29T12:21:42;4.85;;;2.63;;
73170;SDS011;61381;50.118;19.962;2023-05-29T12:26:43;6.68;;;2.50;;
73170;SDS011;61381;50.118;19.962;2023-05-29T12:31:44;4.57;;;2.17;;
73170;SDS011;61381;50.118;19.962;2023-05-29T12:36:46;5.40;;;2.60;;
73170;SDS011;61381;50.118;19.962;2023-05-29T12:41:47;4.78;;;2.70;;
73170;SDS011;61381;50.118;19.962;2023-05-29T12:46:48;5.15;;;2.53;;
73170;SDS011;61381;50.118;19.962;2023-05-29T12:51:51;8.43;;;2.80;;
73170;SDS011;61381;50.118;19.962;2023-05-29T12:56:52;6.13;;;2.45;;
73170;SDS011;61381;50.118;19.962;2023-05-29T13:01:53;4.22;;;2.03;;
73170;SDS011;61381;50.118;19.962;2023-05-29T13:06:55;6.03;;;2.10;;
73170;SDS011;61381;50.118;19.962;2023-05-29T13:11:56;5.03;;;2.33;;
73170;SDS011;61381;50.118;19.962;2023-05-29T13:16:57;5.82;;;2.60;;
73170;SDS011;61381;50.118;19.962;2023-05-29T13:21:59;4.05;;;2.00;;
73170;SDS011;61381;50.118;19.962;2023-05-29T13:27:00;5.70;;;3.03;;
73170;SDS011;61381;50.118;19.962;2023-05-29T13:32:02;9.40;;;2.58;;
73170;SDS011;61381;50.118;19.962;2023-05-29T13:37:04;5.50;;;2.03;;
73170;SDS011;61381;50.118;19.962;2023-05-29T13:42:07;5.53;;;2.28;;
73170;SDS011;61381;50.118;19.962;2023-05-29T13:47:08;3.80;;;2.45;;
73170;SDS011;61381;50.118;19.962;2023-05-29T13:52:10;3.83;;;1.70;;
73170;SDS011;61381;50.118;19.962;2023-05-29T13:57:12;3.10;;;2.22;;
73170;SDS011;61381;50.118;19.962;2023-05-29T14:02:13;4.20;;;2.30;;
73170;SDS011;61381;50.118;19.962;2023-05-29T14:07:15;4.20;;;2.40;;
73170;SDS011;61381;50.118;19.962;2023-05-29T14:12:16;3.95;;;1.98;;
73170;SDS011;61381;50.118;19.962;2023-05-29T14:17:17;3.80;;;2.42;;
73170;SDS011;61381;50.118;19.962;2023-05-29T14:22:20;4.15;;;2.05;;
73170;SDS011;61381;50.118;19.962;2023-05-29T14:27:21;5.78;;;2.22;;
73170;SDS011;61381;50.118;19.962;2023-05-29T14:32:22;3.90;;;2.25;;
73170;SDS011;61381;50.118;19.962;2023-05-29T14:37:24;3.85;;;2.00;;
73170;SDS011;61381;50.118;19.962;2023-05-29T14:42:25;3.70;;;1.83;;
73170;SDS011;61381;50.118;19.962;2023-05-29T14:47:26;4.80;;;2.42;;
73170;SDS011;61381;50.118;19.962;2023-05-29T14:52:29;4.05;;;2.00;;
73170;SDS011;61381;50.118;19.962;2023-05-29T14:57:30;3.97;;;2.20;;
73170;SDS011;61381;50.118;19.962;2023-05-29T15:02:31;3.65;;;2.10;;
73170;SDS011;61381;50.118;19.962;2023-05-29T15:07:33;4.68;;;2.50;;
73170;SDS011;61381;50.118;19.962;2023-05-29T15:12:34;4.85;;;2.30;;
73170;SDS011;61381;50.118;19.962;2023-05-29T15:17:35;4.68;;;2.33;;
73170;SDS011;61381;50.118;19.962;2023-05-29T15:22:38;6.28;;;2.58;;
73170;SDS011;61381;50.118;19.962;2023-05-29T15:27:39;6.10;;;2.53;;
73170;SDS011;61381;50.118;19.962;2023-05-29T15:32:40;4.32;;;2.50;;
73170;SDS011;61381;50.118;19.962;2023-05-29T15:37:43;4.43;;;2.60;;
73170;SDS011;61381;50.118;19.962;2023-05-29T15:42:44;6.18;;;2.38;;
73170;SDS011;61381;50.118;19.962;2023-05-29T15:47:45;6.10;;;2.72;;
73170;SDS011;61381;50.118;19.962;2023-05-29T15:52:48;5.93;;;2.33;;
73170;SDS011;61381;50.118;19.962;2023-05-29T15:57:49;5.45;;;2.83;;
73170;SDS011;61381;50.118;19.962;2023-05-29T16:02:50;5.03;;;2.65;;
73170;SDS011;61381;50.118;19.962;2023-05-29T16:07:53;5.00;;;2.70;;
73170;SDS011;61381;50.118;19.962;2023-05-29T16:12:54;5.07;;;2.35;;
73170;SDS011;61381;50.118;19.962;2023-05-29T16:17:55;6.18;;;2.90;;
73170;SDS011;61381;50.118;19.962;2023-05-29T16:22:57;5.07;;;2.63;;
73170;SDS011;61381;50.118;19.962;2023-05-29T16:27:58;5.05;;;2.75;;
73170;SDS011;61381;50.118;19.962;2023-05-29T16:32:59;5.93;;;2.40;;
73170;SDS011;61381;50.118;19.962;2023-05-29T16:38:02;4.88;;;2.50;;
73170;SDS011;61381;50.118;19.962;2023-05-29T16:43:03;4.38;;;2.53;;
73170;SDS011;61381;50.118;19.962;2023-05-29T16:48:04;7.57;;;3.40;;
73170;SDS011;61381;50.118;19.962;2023-05-29T16:53:07;6.65;;;2.92;;
73170;SDS011;61381;50.118;19.962;2023-05-29T16:58:08;8.77;;;2.50;;
73170;SDS011;61381;50.118;19.962;2023-05-29T17:03:09;5.97;;;2.72;;
73170;SDS011;61381;50.118;19.962;2023-05-29T17:08:11;5.95;;;2.65;;
73170;SDS011;61381;50.118;19.962;2023-05-29T17:13:12;5.93;;;2.50;;
73170;SDS011;61381;50.118;19.962;2023-05-29T17:18:13;5.38;;;2.65;;
73170;SDS011;61381;50.118;19.962;2023-05-29T17:23:15;6.60;;;3.08;;
73170;SDS011;61381;50.118;19.962;2023-05-29T17:28:16;10.65;;;3.97;;
73170;SDS011;61381;50.118;19.962;2023-05-29T17:33:17;8.93;;;4.20;;
73170;SDS011;61381;50.118;19.962;2023-05-29T17:38:20;8.55;;;3.30;;
73170;SDS011;61381;50.118;19.962;2023-05-29T17:43:21;5.05;;;3.53;;
73170;SDS011;61381;50.118;19.962;2023-05-29T17:48:22;6.75;;;3.72;;
73170;SDS011;61381;50.118;19.962;2023-05-29T17:53:24;8.07;;;3.22;;
73170;SDS011;61381;50.118;19.962;2023-05-29T17:58:25;13.02;;;4.47;;
73170;SDS011;61381;50.118;19.962;2023-05-29T18:03:26;9.77;;;3.88;;
73170;SDS011;61381;50.118;19.962;2023-05-29T18:08:28;7.80;;;3.47;;
73170;SDS011;61381;50.118;19.962;2023-05-29T18:13:29;13.55;;;5.93;;
73170;SDS011;61381;50.118;19.962;2023-05-29T18:18:30;24.73;;;10.05;;
73170;SDS011;61381;50.118;19.962;2023-05-29T18:23:32;23.80;;;12.73;;
73170;SDS011;61381;50.118;19.962;2023-05-29T18:28:33;25.58;;;11.18;;
73170;SDS011;61381;50.118;19.962;2023-05-29T18:33:34;28.75;;;11.30;;
73170;SDS011;61381;50.118;19.962;2023-05-29T18:38:37;15.52;;;8.23;;
73170;SDS011;61381;50.118;19.962;2023-05-29T18:43:38;11.45;;;5.45;;
73170;SDS011;61381;50.118;19.962;2023-05-29T18:48:39;33.92;;;12.98;;
73170;SDS011;61381;50.118;19.962;2023-05-29T18:53:41;18.58;;;7.40;;
73170;SDS011;61381;50.118;19.962;2023-05-29T18:58:42;13.90;;;5.28;;
73170;SDS011;61381;50.118;19.962;2023-05-29T19:03:43;9.00;;;4.72;;
73170;SDS011;61381;50.118;19.962;2023-05-29T19:08:46;12.95;;;5.18;;
73170;SDS011;61381;50.118;19.962;2023-05-29T19:13:47;15.82;;;5.55;;
73170;SDS011;61381;50.118;19.962;2023-05-29T19:18:48;14.07;;;6.30;;
73170;SDS011;61381;50.118;19.962;2023-05-29T19:23:50;12.88;;;6.63;;
73170;SDS011;61381;50.118;19.962;2023-05-29T19:28:51;12.82;;;6.72;;
73170;SDS011;61381;50.118;19.962;2023-05-29T19:33:52;16.42;;;6.75;;
73170;SDS011;61381;50.118;19.962;2023-05-29T19:38:55;18.17;;;7.22;;
73170;SDS011;61381;50.118;19.962;2023-05-29T19:43:56;14.50;;;6.60;;
73170;SDS011;61381;50.118;19.962;2023-05-29T19:48:57;20.95;;;6.93;;
73170;SDS011;61381;50.118;19.962;2023-05-29T19:53:59;24.63;;;9.93;;
73170;SDS011;61381;50.118;19.962;2023-05-29T19:59:00;26.15;;;10.38;;
73170;SDS011;61381;50.118;19.962;2023-05-29T20:04:01;30.00;;;12.95;;
73170;SDS011;61381;50.118;19.962;2023-05-29T20:09:03;17.70;;;7.97;;
73170;SDS011;61381;50.118;19.962;2023-05-29T20:14:04;49.58;;;14.68;;
73170;SDS011;61381;50.118;19.962;2023-05-29T20:19:05;85.93;;;24.70;;
73170;SDS011;61381;50.118;19.962;2023-05-29T20:24:09;29.42;;;10.02;;
73170;SDS011;61381;50.118;19.962;2023-05-29T20:29:10;11.55;;;6.18;;
73170;SDS011;61381;50.118;19.962;2023-05-29T20:34:11;22.80;;;7.30;;
73170;SDS011;61381;50.118;19.962;2023-05-29T20:39:14;29.02;;;10.82;;
73170;SDS011;61381;50.118;19.962;2023-05-29T20:44:15;15.50;;;6.07;;
73170;SDS011;61381;50.118;19.962;2023-05-29T20:49:16;22.90;;;8.07;;
73170;SDS011;61381;50.118;19.962;2023-05-29T20:54:18;18.00;;;7.32;;
73170;SDS011;61381;50.118;19.962;2023-05-29T20:59:20;22.75;;;8.02;;
73170;SDS011;61381;50.118;19.962;2023-05-29T21:04:21;20.13;;;8.00;;
73170;SDS011;61381;50.118;19.962;2023-05-29T21:09:23;21.30;;;8.82;;
73170;SDS011;61381;50.118;19.962;2023-05-29T21:14:24;21.52;;;8.95;;
73170;SDS011;61381;50.118;19.962;2023-05-29T21:19:25;11.18;;;4.38;;
73170;SDS011;61381;50.118;19.962;2023-05-29T21:24:27;7.10;;;3.50;;
73170;SDS011;61381;50.118;19.962;2023-05-29T21:29:28;6.28;;;3.35;;
73170;SDS011;61381;50.118;19.962;2023-05-29T21:34:30;7.18;;;3.53;;
73170;SDS011;61381;50.118;19.962;2023-05-29T21:39:32;6.15;;;3.33;;
73170;SDS011;61381;50.118;19.962;2023-05-29T21:44:33;11.73;;;4.55;;
73170;SDS011;61381;50.118;19.962;2023-05-29T21:49:34;9.23;;;4.18;;
73170;SDS011;61381;50.118;19.962;2023-05-29T21:54:36;9.90;;;4.97;;
73170;SDS011;61381;50.118;19.962;2023-05-29T21:59:37;10.85;;;5.00;;
73170;SDS011;61381;50.118;19.962;2023-05-29T22:04:38;9.68;;;5.10;;
73170;SDS011;61381;50.118;19.962;2023-05-29T22:09:41;11.45;;;5.60;;
73170;SDS011;61381;50.118;19.962;2023-05-29T22:14:42;14.00;;;5.10;;
73170;SDS011;61381;50.118;19.962;2023-05-29T22:19:43;10.85;;;5.53;;
73170;SDS011;61381;50.118;19.962;2023-05-29T22:24:45;13.02;;;5.63;;
73170;SDS011;61381;50.118;19.962;2023-05-29T22:29:46;11.73;;;4.90;;
73170;SDS011;61381;50.118;19.962;2023-05-29T22:34:47;12.00;;;5.85;;
73170;SDS011;61381;50.118;19.962;2023-05-29T22:39:50;12.25;;;6.22;;
73170;SDS011;61381;50.118;19.962;2023-05-29T22:44:51;12.95;;;6.03;;
73170;SDS011;61381;50.118;19.962;2023-05-29T22:49:52;12.48;;;5.32;;
73170;SDS011;61381;50.118;19.962;2023-05-29T22:54:54;9.23;;;5.07;;
73170;SDS011;61381;50.118;19.962;2023-05-29T22:59:56;14.10;;;4.97;;
73170;SDS011;61381;50.118;19.962;2023-05-29T23:04:57;10.50;;;5.28;;
73170;SDS011;61381;50.118;19.962;2023-05-29T23:10:00;10.05;;;5.22;;
73170;SDS011;61381;50.118;19.962;2023-05-29T23:15:01;11.25;;;5.05;;
73170;SDS011;61381;50.118;19.962;2023-05-29T23:20:02;10.43;;;5.05;;
73170;SDS011;61381;50.118;19.962;2023-05-29T23:25:06;10.65;;;4.68;;
73170;SDS011;61381;50.118;19.962;2023-05-29T23:30:07;9.95;;;5.25;;
73170;SDS011;61381;50.118;19.962;2023-05-29T23:35:09;9.27;;;5.80;;
73170;SDS011;61381;50.118;19.962;2023-05-29T23:40:12;12.07;;;5.10;;
73170;SDS011;61381;50.118;19.962;2023-05-29T23:45:15;9.02;;;4.57;;
73170;SDS011;61381;50.118;19.962;2023-05-29T23:50:16;8.63;;;4.78;;
73170;SDS011;61381;50.118;19.962;2023-05-29T23:55:19;9.35;;;5.07;;
